Grand Junction, CO (81506)

10:50 AM MDT on September 21, 2014 (GMT -0600)
Larkspur Lane | Change Station
CLOSE
Current Station
Personal Weather Station
Location: Grand Junction, CO
Elevation: 4672 ft
Nearby Weather Stations
Active Advisory: Special Statement Active Notice: Public Information Statement

Elev 4672 ft 39.10 °N, 108.56 °W | Updated 0 second ago

Light Rain
Light Rain
64.0 °F
Feels Like 64.0 °F
N
0.0
Wind Variable Wind from South
Gusts 0.0 mph

Today
High -- | Low -- °F
--% Chance of Precip.
Yesterday
High -- | Low -- °F
Precip. -- in
7:01 AM 7:12 PM
Waning Crescent, 6% visible
Pressure 30.10 in
Visibility 7.0 miles
Clouds Few 7000 ft
Overcast 10000 ft
Dew Point 61 °F
Humidity 90%
Rainfall 0.37 in
Snow Depth 0 in , 0 in , 0 in
UV 1 out of 12
Pollen 5.10 out of 12
Air Quality Not available.
Flu Activity Not available.
METAR KGJT 211553Z 11015KT 7SM -RA FEW070 OVC100 16/14 A3027 RMK AO2 SLP193 P0017 T01560139

More Conditions Fewer Conditions

Pressure 30.10 in
Visibility 7.0 miles
Clouds Few 7000 ft
Overcast 10000 ft
Dew Point 61 °F
Humidity 90%
Rainfall 0.37 in
Snow Depth 0 in , 0 in , 0 in
UV 1 out of 12
Pollen 5.10 out of 12
Air Quality Not available.
Flu Activity Not available.
METAR KGJT 211553Z 11015KT 7SM -RA FEW070 OVC100 16/14 A3027 RMK AO2 SLP193 P0017 T01560139

More Conditions Fewer Conditions

Nowcast | as of 10:11 am MDT on September 21, 2014

at 1008 am MDT...Doppler radar indicated showers and thunderstorms across much of central and northwestern Colorado this morning. These showers and storms will bring light to moderate and occasionally heavy showers at times. Expect some ponding of water on roads. Some gusty winds will also occur as this precipitation moves through. Locations impacted include... Glenwood Springs...Vernal...Rifle...Gypsum...Carbondale...New Castle...Basalt...Silt...Palisade...Meeker...Rangely...Paonia... Parachute...Collbran...De Beque...Dinosaur...Mesa...Rio Blanco... Battlement Mesa and Naples.

×

10-Day Weather Forecast

Almanac

Astronomy

Sep. 21, 2014 Rise Set
Actual Time 7:01 AM MDT 7:12 PM MDT
Civil Twilight 6:34 AM MDT 7:39 PM MDT
Nautical Twilight 6:03 AM MDT 8:10 PM MDT
Astronomical Twilight 5:31 AM MDT 8:42 PM MDT
Moon 4:38 AM MDT 5:49 PM MDT
Length of Visible Light 13h 05m
Length of Day
12h 11m
Tomorrow will be 2m 32s shorter.
Waning Crescent, 6% of the Moon is Illuminated
Today
Waning Crescent
Sep 24
New
Oct 1
First Quarter
Oct 8
Full
Oct 15
Last Quarter

Today's Extremes

State Highs State Lows

Community

WunderPhotos

Upload Photos

1,755,186 photos uploaded!

Nearby

Snow Depth

Station Depth Elevation
Beartown 0 in 11600 ft
Rough And Tumble 0 in 10360 ft
Tower 0 in 10500 ft
Porphyry Creek 0 in 10760 ft
Brumley 0 in 10600 ft

Earthquake Activity

City Distance Mag. Time & Date
No recent earthquake activity has been reported nearby.
Minimum magnitude displayed is 2.5.

Coastal Water Temperatures

Place Temperature
No Stations Reporting

Nearby Weather Stations